Time;durP1;ratioP1;P1;durP2;ratioP2;P2;SDS_P1;SDS_P2;PMS_P1;PMS_P2;Temp;Humidity;BMP_temperature;BMP_pressure;BME280_temperature;BME280_humidity;BME280_pressure;Samples;Min_cycle;Max_cycle;Signal;HPM_P1;HPM_P2
2022/12/20 01:23:08;;;;;;;12.90;9.33;;;;;;;2.89;100.00;96275.56;6017982;23;20277;-89
2022/12/20 03:05:48;;;;;;;4.23;3.33;;;;;;;3.38;100.00;96229.50;5752680;24;20191;-89
2022/12/20 03:49:53;;;;;;;3.90;3.10;;;;;;;3.30;100.00;96171.53;5708766;24;20263;-88
2022/12/20 04:12:36;;;;;;;3.47;3.17;;;;;;;3.51;100.00;96197.06;5974684;24;20185;-89
2022/12/20 04:15:40;;;;;;;3.50;2.70;;;;;;;3.52;100.00;96202.97;5984400;23;20178;-90
2022/12/20 04:18:39;;;;;;;;;;;;;;;;;;;;;
2022/12/20 04:21:32;;;;;;;3.80;3.40;;;;;;;3.59;100.00;96201.59;5918904;24;20522;-88
2022/12/20 04:24:05;;;;;;;3.90;3.17;;;;;;;3.61;100.00;96202.28;5919268;24;20615;-89
2022/12/20 04:46:46;;;;;;;;;;;;;;;;;;;;;
2022/12/20 05:10:39;;;;;;;4.03;3.20;;;;;;;3.41;100.00;96135.09;5909572;23;20181;-88
2022/12/20 05:13:18;;;;;;;4.50;2.70;;;;;;;3.44;100.00;96134.88;6032006;23;20200;-87
2022/12/20 05:15:52;;;;;;;3.50;2.97;;;;;;;3.45;100.00;96139.03;6072774;23;20259;-88
2022/12/20 05:18:37;;;;;;;3.90;3.27;;;;;;;3.46;100.00;96123.59;6119242;23;20211;-88
2022/12/20 05:33:07;;;;;;;3.87;3.23;;;;;;;3.61;100.00;96125.91;6121198;23;20176;-83
2022/12/20 05:35:33;;;;;;;3.53;2.90;;;;;;;3.58;100.00;96116.78;6124979;23;20514;-84
2022/12/20 05:38:00;;;;;;;3.90;3.00;;;;;;;3.59;100.00;96120.13;6124039;23;20210;-82
2022/12/20 05:40:26;;;;;;;4.03;3.10;;;;;;;3.66;100.00;96118.69;6129693;23;20447;-83
2022/12/20 05:42:53;;;;;;;3.77;3.10;;;;;;;3.70;100.00;96120.06;6153644;23;20171;-81
2022/12/20 05:45:21;;;;;;;4.37;2.90;;;;;;;3.72;100.00;96105.47;6155111;23;20179;-83
2022/12/20 05:47:48;;;;;;;3.13;2.50;;;;;;;3.76;100.00;96111.97;6153740;23;20201;-82
2022/12/20 05:50:16;;;;;;;3.27;2.80;;;;;;;3.77;99.78;96104.19;6152893;23;20178;-84
2022/12/20 05:52:42;;;;;;;2.77;2.40;;;;;;;3.78;99.72;96100.72;6153852;23;20620;-83
2022/12/20 05:55:09;;;;;;;3.30;2.60;;;;;;;3.78;99.73;96084.63;6153933;23;20637;-83
2022/12/20 05:57:36;;;;;;;3.93;2.90;;;;;;;3.74;100.00;96089.16;6154416;23;20203;-82
2022/12/20 06:00:04;;;;;;;3.93;2.70;;;;;;;3.76;100.00;96099.22;6154734;23;20160;-82
2022/12/20 06:02:32;;;;;;;3.17;2.57;;;;;;;3.78;100.00;96102.47;6154248;23;20175;-82
2022/12/20 06:04:58;;;;;;;2.83;2.50;;;;;;;3.84;99.85;96106.28;6155284;23;20187;-83
2022/12/20 06:07:24;;;;;;;4.30;2.60;;;;;;;3.84;99.63;96101.97;6155424;23;20748;-81
2022/12/20 06:09:51;;;;;;;3.20;2.90;;;;;;;3.87;99.40;96103.44;6154765;23;20181;-83
2022/12/20 06:12:17;;;;;;;2.90;2.60;;;;;;;3.84;99.64;96111.38;6155233;23;20194;-83
2022/12/20 06:14:44;;;;;;;3.97;2.77;;;;;;;3.85;99.60;96102.78;6154731;23;20278;-81
2022/12/20 06:17:10;;;;;;;3.20;2.60;;;;;;;3.89;99.68;96101.59;6154226;23;20166;-82
2022/12/20 06:19:40;;;;;;;2.80;2.50;;;;;;;3.91;99.20;96098.00;6155498;23;20730;-85
2022/12/20 06:22:07;;;;;;;3.60;2.70;;;;;;;3.93;99.63;96092.78;6154617;23;20179;-83
2022/12/20 06:24:34;;;;;;;3.20;2.43;;;;;;;3.93;99.17;96093.59;6154776;23;20182;-83
2022/12/20 06:27:00;;;;;;;3.40;2.60;;;;;;;3.95;99.52;96093.47;6154471;23;20175;-82
2022/12/20 06:29:27;;;;;;;2.90;2.60;;;;;;;3.97;99.13;96094.97;6153663;23;20542;-83
2022/12/20 06:31:53;;;;;;;3.80;2.53;;;;;;;3.97;99.41;96094.16;6154963;23;20175;-84
2022/12/20 06:34:20;;;;;;;2.93;2.63;;;;;;;3.98;99.30;96098.31;6155145;23;20179;-85
2022/12/20 06:36:48;;;;;;;4.13;2.80;;;;;;;4.00;98.88;96101.56;6154001;23;20190;-83
2022/12/20 06:39:14;;;;;;;3.20;2.80;;;;;;;4.03;98.80;96106.41;6153133;23;20203;-83
2022/12/20 06:41:41;;;;;;;3.30;2.80;;;;;;;4.03;98.75;96106.41;6153320;23;20541;-83
2022/12/20 06:44:08;;;;;;;2.93;2.50;;;;;;;4.04;98.66;96103.72;6153608;23;20163;-84
2022/12/20 06:46:34;;;;;;;3.47;2.57;;;;;;;4.00;98.83;96102.38;6153238;23;20183;-84
2022/12/20 06:49:01;;;;;;;5.30;2.70;;;;;;;4.02;99.30;96097.16;6152849;23;20273;-84
2022/12/20 06:51:27;;;;;;;3.77;2.90;;;;;;;4.03;99.98;96093.69;6153274;23;20683;-83
2022/12/20 06:53:55;;;;;;;2.90;2.60;;;;;;;4.05;98.92;96105.34;6152510;23;20185;-83
2022/12/20 06:56:22;;;;;;;4.83;2.80;;;;;;;4.04;98.79;96108.03;6153912;23;20175;-84
2022/12/20 06:58:48;;;;;;;3.27;2.97;;;;;;;4.03;99.06;96102.13;6152663;23;20209;-84
2022/12/20 07:01:15;;;;;;;3.33;2.80;;;;;;;4.01;99.80;96095.53;6153645;23;20509;-84
2022/12/20 07:03:41;;;;;;;4.73;3.40;;;;;;;4.02;99.52;96097.16;6153262;23;20178;-83
2022/12/20 07:06:08;;;;;;;5.47;3.10;;;;;;;4.00;99.85;96088.81;6154311;23;20175;-84
2022/12/20 07:08:34;;;;;;;7.60;3.80;;;;;;;3.97;100.00;96089.06;6153342;23;20316;-80
2022/12/20 07:11:05;;;;;;;4.77;3.50;;;;;;;3.95;100.00;96083.28;6155790;23;20175;-81
2022/12/20 07:13:32;;;;;;;5.50;3.50;;;;;;;3.97;100.00;96078.88;6159020;23;20167;-82
2022/12/20 07:15:59;;;;;;;4.17;3.33;;;;;;;3.97;99.83;96092.41;6156089;23;20174;-83
2022/12/20 07:18:25;;;;;;;6.60;3.70;;;;;;;3.97;99.97;96089.06;6154123;23;20254;-83
2022/12/20 07:20:52;;;;;;;5.23;3.43;;;;;;;3.97;100.00;96089.88;6155585;23;20178;-83
2022/12/20 07:23:18;;;;;;;4.93;3.10;;;;;;;3.98;100.00;96094.03;6154909;23;20214;-82
2022/12/20 07:25:53;;;;;;;5.10;2.60;;;;;;;3.95;100.00;96085.81;6155690;23;20185;-84
2022/12/20 07:28:21;;;;;;;6.10;3.43;;;;;;;3.97;100.00;96096.72;6153584;23;20194;-82
2022/12/20 07:30:47;;;;;;;9.00;3.57;;;;;;;3.98;100.00;96083.84;6154464;23;20675;-83
2022/12/20 07:33:14;;;;;;;9.17;3.67;;;;;;;3.98;100.00;96088.94;6155110;23;20175;-83
2022/12/20 07:35:40;;;;;;;6.07;3.57;;;;;;;3.96;100.00;96095.91;6153263;23;20179;-84
2022/12/20 07:38:06;;;;;;;7.20;3.87;;;;;;;3.95;100.00;96096.81;6153526;23;20203;-82
2022/12/20 07:40:33;;;;;;;6.30;3.43;;;;;;;3.98;100.00;96099.13;6154509;23;20186;-82
2022/12/20 07:42:59;;;;;;;5.93;3.30;;;;;;;4.00;100.00;96097.28;6154448;23;20200;-84
2022/12/20 07:45:27;;;;;;;4.27;3.10;;;;;;;4.01;100.00;96101.44;6154808;23;20403;-84
2022/12/20 07:47:56;;;;;;;6.17;3.10;;;;;;;4.03;100.00;96103.88;6153874;23;20680;-83
2022/12/20 07:50:22;;;;;;;4.57;3.50;;;;;;;4.04;100.00;96124.09;6153865;23;20185;-84
2022/12/20 07:52:50;;;;;;;4.43;3.33;;;;;;;4.06;99.77;96117.13;6154054;23;20178;-82
2022/12/20 07:55:18;;;;;;;7.20;3.50;;;;;;;4.08;100.00;96111.91;6153592;23;20181;-82
2022/12/20 07:57:49;;;;;;;3.67;3.20;;;;;;;4.07;100.00;96112.84;6153224;23;20258;-83
2022/12/20 08:00:17;;;;;;;4.20;3.43;;;;;;;4.05;100.00;96118.06;6154231;23;20170;-82
2022/12/20 08:02:52;;;;;;;4.97;3.07;;;;;;;4.04;100.00;96118.22;6153960;23;20186;-82
2022/12/20 08:05:19;;;;;;;4.57;2.93;;;;;;;4.06;100.00;96119.69;6154642;23;20158;-83
2022/12/20 08:07:47;;;;;;;6.50;3.53;;;;;;;4.09;100.00;96116.91;6153002;23;20246;-82
2022/12/20 08:10:15;;;;;;;6.73;3.53;;;;;;;4.06;100.00;96108.69;6153803;23;20175;-82
2022/12/20 08:12:45;;;;;;;5.53;3.50;;;;;;;4.10;100.00;96107.50;6153065;23;20186;-82
2022/12/20 08:15:11;;;;;;;3.43;3.10;;;;;;;4.13;100.00;96108.09;6153403;23;20175;-83
2022/12/20 08:17:38;;;;;;;4.40;3.23;;;;;;;4.20;100.00;96112.69;6153341;23;20205;-82
2022/12/20 08:20:07;;;;;;;4.37;3.40;;;;;;;4.23;100.00;96104.81;6153215;23;20179;-83
2022/12/20 08:22:34;;;;;;;10.03;3.70;;;;;;;4.26;100.00;96110.44;6154232;23;20682;-83
2022/12/20 08:25:01;;;;;;;5.87;3.43;;;;;;;4.30;100.00;96108.44;6153720;23;20209;-83
2022/12/20 08:27:27;;;;;;;4.57;3.20;;;;;;;4.31;100.00;96097.31;6152792;23;20195;-82
2022/12/20 08:29:54;;;;;;;3.30;3.00;;;;;;;4.34;100.00;96094.53;6151906;23;20175;-83
2022/12/20 08:32:20;;;;;;;3.07;2.60;;;;;;;4.38;100.00;96085.69;6153976;23;20629;-82
2022/12/20 08:34:47;;;;;;;3.17;2.87;;;;;;;4.39;100.00;96089.88;6152948;23;20175;-83
2022/12/20 08:37:17;;;;;;;4.00;2.90;;;;;;;4.43;100.00;96084.38;6153629;23;20179;-82
2022/12/20 08:39:43;;;;;;;4.63;2.73;;;;;;;4.48;100.00;96084.00;6153192;23;20199;-83
2022/12/20 08:42:11;;;;;;;4.20;3.20;;;;;;;4.52;99.56;96090.47;6152967;23;20179;-83
2022/12/20 08:44:39;;;;;;;4.37;3.07;;;;;;;4.56;99.91;96093.56;6153578;23;20175;-82
2022/12/20 08:47:06;;;;;;;3.63;3.23;;;;;;;4.57;100.00;96096.00;6154489;23;20178;-84
2022/12/20 08:49:32;;;;;;;4.70;3.37;;;;;;;4.58;99.40;96101.91;6152263;23;20182;-82
2022/12/20 08:51:59;;;;;;;5.33;3.00;;;;;;;4.62;100.00;96103.28;6153469;23;20175;-84
2022/12/20 08:54:26;;;;;;;8.20;3.37;;;;;;;4.65;99.20;96105.53;6152755;23;20171;-83
2022/12/20 08:56:53;;;;;;;5.23;2.97;;;;;;;4.70;98.57;96104.25;6152486;23;20178;-83
2022/12/20 08:59:19;;;;;;;6.63;3.17;;;;;;;4.73;97.74;96098.88;6152300;23;20229;-82
2022/12/20 09:01:46;;;;;;;4.83;3.40;;;;;;;4.79;97.95;96095.84;6153153;23;20178;-83
2022/12/20 09:04:13;;;;;;;4.40;2.90;;;;;;;4.82;98.09;96094.75;6152502;23;20179;-80
2022/12/20 09:06:40;;;;;;;4.03;2.87;;;;;;;4.87;97.83;96095.19;6152509;23;20650;-82
2022/12/20 09:09:06;;;;;;;6.47;3.30;;;;;;;4.91;98.14;96090.63;6152728;23;20191;-83
2022/12/20 09:11:34;;;;;;;5.50;3.20;;;;;;;4.95;97.61;96081.78;6152120;23;20182;-83
2022/12/20 09:14:01;;;;;;;6.13;3.57;;;;;;;4.96;97.52;96079.09;6152951;23;20175;-83
2022/12/20 09:16:29;;;;;;;3.50;3.20;;;;;;;4.96;97.87;96075.75;6154686;23;20648;-82
2022/12/20 09:18:57;;;;;;;6.47;3.67;;;;;;;5.00;97.65;96072.00;6154022;23;20579;-81
2022/12/20 09:21:24;;;;;;;5.20;3.43;;;;;;;5.03;96.83;96067.41;6154571;23;20179;-82
2022/12/20 09:23:52;;;;;;;8.83;6.10;;;;;;;5.11;97.04;96070.16;6154380;23;20179;-83
2022/12/20 09:26:20;;;;;;;7.10;4.30;;;;;;;5.16;96.61;96072.31;6154393;23;20179;-81
2022/12/20 09:28:48;;;;;;;5.10;3.80;;;;;;;5.22;96.25;96067.47;6151676;23;20523;-83
2022/12/20 09:31:16;;;;;;;4.67;3.40;;;;;;;5.32;96.90;96066.69;6154982;23;20500;-82
2022/12/20 09:33:43;;;;;;;4.23;3.50;;;;;;;5.39;94.97;96057.53;6154579;23;20178;-82
2022/12/20 09:36:12;;;;;;;4.90;3.60;;;;;;;5.44;94.08;96063.06;6154862;23;20164;-83
2022/12/20 09:38:38;;;;;;;5.90;3.50;;;;;;;5.45;93.41;96055.28;6154347;23;20195;-84
2022/12/20 09:41:08;;;;;;;6.83;3.67;;;;;;;5.47;94.00;96048.28;6153563;23;20232;-82
2022/12/20 09:43:35;;;;;;;4.93;3.57;;;;;;;5.50;93.90;96044.66;6154568;23;20186;-84
2022/12/20 09:46:03;;;;;;;5.60;4.30;;;;;;;5.47;93.86;96032.16;6153998;23;20176;-83
2022/12/20 09:48:33;;;;;;;6.80;4.60;;;;;;;5.47;93.43;96032.97;6153435;23;20237;-82
2022/12/20 09:51:12;;;;;;;5.83;4.17;;;;;;;5.50;93.55;96034.44;6154090;23;20178;-83
2022/12/20 09:53:54;;;;;;;5.50;4.57;;;;;;;5.58;93.53;96041.47;6154327;23;20210;-83
2022/12/20 09:56:26;;;;;;;7.07;4.37;;;;;;;5.64;93.06;96023.81;6152933;23;20314;-84
2022/12/20 09:59:00;;;;;;;7.33;4.73;;;;;;;5.68;92.67;96027.72;6153480;23;20203;-83
2022/12/20 10:01:31;;;;;;;9.20;4.60;;;;;;;5.72;91.93;96021.41;6153950;23;20163;-82
2022/12/20 10:04:01;;;;;;;5.87;4.83;;;;;;;5.72;91.47;96016.31;6154164;23;20163;-84
2022/12/20 10:06:39;;;;;;;6.10;4.30;;;;;;;5.77;91.69;96013.34;6153356;23;20659;-82
2022/12/20 10:09:13;;;;;;;5.53;4.50;;;;;;;5.79;91.71;96001.22;6153945;23;20255;-83
2022/12/20 10:11:53;;;;;;;6.30;4.50;;;;;;;5.84;91.66;96014.41;6155375;23;20163;-82
2022/12/20 10:14:33;;;;;;;6.90;4.10;;;;;;;5.83;90.38;96016.16;6154505;23;20162;-83
2022/12/20 10:17:05;;;;;;;9.23;4.53;;;;;;;5.92;90.64;96018.88;6154619;23;20162;-83
2022/12/20 10:19:59;;;;;;;6.07;3.90;;;;;;;5.99;89.59;96022.47;6153954;23;20203;-82
2022/12/20 10:22:33;;;;;;;6.57;4.23;;;;;;;6.03;90.40;96021.25;6154746;23;20198;-83
2022/12/20 10:25:11;;;;;;;6.43;4.47;;;;;;;6.09;92.39;96015.59;6154541;23;20163;-82
2022/12/20 10:27:41;;;;;;;7.67;4.97;;;;;;;6.13;92.34;96019.50;6154041;23;20205;-84
2022/12/20 10:30:13;;;;;;;6.10;4.47;;;;;;;6.17;91.37;96024.19;6153385;23;20193;-83
2022/12/20 10:32:44;;;;;;;6.30;4.60;;;;;;;6.18;91.75;96019.88;6153741;23;20170;-83
2022/12/20 10:35:24;;;;;;;8.60;5.00;;;;;;;6.18;94.12;96014.75;6154231;23;20528;-83
2022/12/20 10:38:00;;;;;;;9.70;5.63;;;;;;;6.23;94.08;96007.47;6152433;23;20206;-83
2022/12/20 10:40:28;;;;;;;5.83;5.17;;;;;;;6.26;94.83;96001.28;6153522;23;20205;-83
2022/12/20 10:42:55;;;;;;;9.00;5.20;;;;;;;6.27;94.42;95998.59;6154094;23;20156;-81
2022/12/20 10:45:33;;;;;;;7.23;5.23;;;;;;;6.28;93.87;95995.09;6153012;23;20205;-82
2022/12/20 10:48:02;;;;;;;7.30;5.20;;;;;;;6.28;94.71;95986.63;6153335;23;20233;-83
2022/12/20 10:50:29;;;;;;;7.37;5.17;;;;;;;6.28;93.92;95979.75;6153039;23;20175;-82
2022/12/20 10:53:20;;;;;;;8.63;5.10;;;;;;;6.26;96.30;95970.59;6153472;23;20688;-81
2022/12/20 10:55:47;;;;;;;8.07;5.53;;;;;;;6.27;95.04;95962.78;6152355;23;20613;-82
2022/12/20 10:58:16;;;;;;;7.23;4.70;;;;;;;6.32;94.41;95957.28;6152767;23;20282;-83
2022/12/20 11:00:44;;;;;;;5.57;4.23;;;;;;;6.34;92.68;95957.94;6153278;23;20229;-83
2022/12/20 11:03:16;;;;;;;11.67;5.07;;;;;;;6.38;92.92;95947.25;6153043;23;20179;-83
2022/12/20 11:05:54;;;;;;;6.50;5.00;;;;;;;6.41;92.11;95948.72;6153159;23;20213;-81
2022/12/20 11:08:23;;;;;;;5.40;4.73;;;;;;;6.45;92.92;95944.94;6152122;23;20202;-83
2022/12/20 11:10:50;;;;;;;6.20;5.13;;;;;;;6.49;93.00;95939.41;6153573;23;20505;-83
2022/12/20 11:13:22;;;;;;;10.30;5.20;;;;;;;6.52;93.03;95943.44;6153636;23;20517;-82
2022/12/20 11:15:53;;;;;;;6.97;4.97;;;;;;;6.53;92.83;95937.38;6153201;23;20159;-81
2022/12/20 11:18:29;;;;;;;7.63;5.37;;;;;;;6.58;93.02;95937.75;6152800;23;20202;-83
2022/12/20 11:21:04;;;;;;;11.73;5.70;;;;;;;6.63;93.12;95929.66;6152856;23;20186;-84
2022/12/20 11:23:40;;;;;;;6.30;5.27;;;;;;;6.66;93.18;95929.38;6153183;23;20186;-82
2022/12/20 11:26:23;;;;;;;8.60;5.87;;;;;;;6.69;93.40;95923.97;6152688;23;20163;-83
2022/12/20 11:29:07;;;;;;;8.13;6.00;;;;;;;6.75;93.65;95918.25;6151638;23;20202;-82
2022/12/20 11:31:45;;;;;;;11.67;6.77;;;;;;;6.82;92.89;95911.63;6152903;23;20226;-83
2022/12/20 11:34:22;;;;;;;9.10;6.47;;;;;;;6.92;92.79;95915.72;6153335;23;20170;-81
2022/12/20 11:37:16;;;;;;;12.60;7.03;;;;;;;7.03;92.78;95908.78;6153103;23;20162;-81
2022/12/20 11:39:55;;;;;;;9.33;6.10;;;;;;;7.09;91.74;95897.94;6152847;23;20183;-82
2022/12/20 11:42:28;;;;;;;15.30;7.93;;;;;;;7.15;90.38;95899.91;6154182;23;20544;-82
2022/12/20 11:45:05;;;;;;;8.17;6.50;;;;;;;7.20;89.87;95885.72;6153700;23;20190;-82
2022/12/20 11:47:54;;;;;;;10.20;6.20;;;;;;;7.27;90.60;95878.25;6153272;23;20194;-83
2022/12/20 11:50:39;;;;;;;9.13;6.00;;;;;;;7.40;89.98;95877.84;6152694;23;20160;-83
2022/12/20 11:53:13;;;;;;;9.57;5.93;;;;;;;7.43;88.39;95870.69;6152839;23;20620;-83
2022/12/20 11:55:41;;;;;;;11.17;6.50;;;;;;;7.45;85.90;95861.09;6151498;23;20578;-82
2022/12/20 11:58:18;;;;;;;10.77;5.97;;;;;;;7.49;86.51;95862.41;6152171;23;20201;-82
2022/12/20 12:00:51;;;;;;;11.87;5.53;;;;;;;7.52;86.65;95861.28;6149697;23;20179;-83
2022/12/20 12:03:21;;;;;;;7.97;5.77;;;;;;;7.55;85.08;95860.97;6152319;23;20613;-82
2022/12/20 12:05:54;;;;;;;11.23;6.17;;;;;;;7.58;85.77;95851.25;6153054;23;20160;-83
2022/12/20 12:08:25;;;;;;;9.80;6.47;;;;;;;7.54;85.99;95864.50;6152469;23;20201;-82
2022/12/20 12:10:58;;;;;;;10.17;6.37;;;;;;;7.48;87.16;95852.31;6153288;23;20155;-82
2022/12/20 12:13:27;;;;;;;13.30;6.43;;;;;;;7.44;88.00;95856.94;6153138;23;20641;-81
2022/12/20 12:15:59;;;;;;;9.73;6.33;;;;;;;7.43;87.83;95855.31;6152878;23;20178;-81
2022/12/20 12:18:30;;;;;;;8.73;6.27;;;;;;;7.42;88.26;95847.78;6152476;23;20206;-83
2022/12/20 12:21:05;;;;;;;9.03;6.70;;;;;;;7.39;91.51;95845.50;6152480;23;20701;-82
2022/12/20 12:23:41;;;;;;;11.87;7.07;;;;;;;7.37;90.04;95844.84;6152607;23;20159;-84
2022/12/20 12:26:20;;;;;;;11.57;7.80;;;;;;;7.35;90.62;95841.63;6152084;23;20182;-82
2022/12/20 12:28:53;;;;;;;11.03;8.93;;;;;;;7.33;91.41;95846.91;6151225;23;20604;-83
2022/12/20 12:31:25;;;;;;;8.13;6.90;;;;;;;7.31;90.54;95840.34;6152882;23;20203;-82
2022/12/20 12:34:04;;;;;;;9.33;7.00;;;;;;;7.29;90.41;95837.94;6153196;23;20160;-84
2022/12/20 12:36:47;;;;;;;7.63;6.43;;;;;;;7.26;90.79;95849.28;6152083;23;20656;-82
2022/12/20 12:39:30;;;;;;;7.57;6.37;;;;;;;7.24;91.12;95840.94;6152945;23;20199;-82
2022/12/20 12:42:27;;;;;;;12.97;6.67;;;;;;;7.28;91.16;95838.88;6152331;23;20183;-83
2022/12/20 12:44:57;;;;;;;8.00;6.50;;;;;;;7.33;90.75;95831.53;6152642;23;20763;-82
2022/12/20 12:47:34;;;;;;;8.23;6.10;;;;;;;7.31;90.93;95823.22;6152826;23;20194;-82
2022/12/20 12:50:02;;;;;;;7.07;6.37;;;;;;;7.29;90.82;95820.00;6153538;23;20155;-81
2022/12/20 12:52:42;;;;;;;13.60;8.13;;;;;;;7.27;90.76;95815.03;6153757;23;20179;-82
2022/12/20 12:55:35;;;;;;;11.77;7.47;;;;;;;7.28;90.93;95815.84;6154548;23;20182;-82
2022/12/20 12:58:13;;;;;;;7.50;5.70;;;;;;;7.27;90.67;95814.22;6154564;23;20688;-82
2022/12/20 13:00:49;;;;;;;6.57;5.40;;;;;;;7.25;91.18;95813.56;6153952;23;20186;-81
2022/12/20 13:03:17;;;;;;;10.97;5.90;;;;;;;7.24;91.57;95811.97;6155164;23;20623;-83
2022/12/20 13:05:43;;;;;;;8.10;5.60;;;;;;;7.26;91.89;95810.06;6154842;23;20210;-82
2022/12/20 13:08:17;;;;;;;9.50;6.13;;;;;;;7.27;91.76;95819.34;6154092;23;20206;-83
2022/12/20 13:10:59;;;;;;;8.77;5.20;;;;;;;7.26;91.10;95818.53;6155362;23;20491;-83
2022/12/20 13:13:25;;;;;;;7.13;5.70;;;;;;;7.26;91.15;95813.44;6153620;23;20210;-84
2022/12/20 13:16:11;;;;;;;6.80;5.70;;;;;;;7.24;90.70;95814.53;6154398;23;20701;-84
2022/12/20 13:18:38;;;;;;;8.23;5.63;;;;;;;7.21;92.06;95815.63;6153657;23;20660;-83
2022/12/20 13:21:37;;;;;;;9.50;6.23;;;;;;;7.16;91.81;95817.81;6155249;23;20179;-82
2022/12/20 13:24:41;;;;;;;11.50;6.03;;;;;;;7.12;93.82;95826.75;6154772;23;20185;-83
2022/12/20 13:27:32;;;;;;;18.87;11.30;;;;;;;7.08;96.55;95833.16;6154948;23;20215;-83
2022/12/20 13:30:24;;;;;;;18.93;12.40;;;;;;;7.03;97.14;95827.66;6154396;23;20230;-82
2022/12/20 13:33:25;;;;;;;20.03;14.37;;;;;;;6.97;98.42;95830.00;6154810;23;20183;-82
2022/12/20 13:35:57;;;;;;;22.20;15.60;;;;;;;6.91;97.43;95839.09;6153518;23;20619;-81
2022/12/20 13:38:50;;;;;;;28.93;15.30;;;;;;;6.85;98.93;95832.00;6154201;23;20214;-81
2022/12/20 13:41:29;;;;;;;26.23;14.90;;;;;;;6.80;98.54;95839.28;6154642;23;20198;-83
2022/12/20 13:43:59;;;;;;;26.53;16.17;;;;;;;6.74;99.13;95839.88;6154775;23;20288;-82
2022/12/20 13:46:31;;;;;;;23.43;17.10;;;;;;;6.64;100.00;95836.59;6153857;23;20187;-82
2022/12/20 13:49:02;;;;;;;20.47;16.20;;;;;;;6.61;98.68;95826.66;6154377;23;20198;-82
2022/12/20 13:51:29;;;;;;;21.40;17.23;;;;;;;6.53;99.16;95817.16;6154663;23;20160;-83
2022/12/20 13:53:58;;;;;;;24.03;17.67;;;;;;;6.49;98.58;95808.16;6154703;23;20557;-82
2022/12/20 13:56:40;;;;;;;23.97;18.00;;;;;;;6.45;97.53;95812.75;6154332;23;20241;-83
2022/12/20 13:59:14;;;;;;;24.53;18.47;;;;;;;6.39;97.46;95821.00;6154742;23;20261;-83
2022/12/20 14:01:48;;;;;;;27.87;19.93;;;;;;;6.27;96.71;95817.06;6155594;23;20190;-83
2022/12/20 14:04:15;;;;;;;23.83;20.10;;;;;;;6.29;95.90;95812.59;6154738;23;20163;-82
2022/12/20 14:06:41;;;;;;;24.00;18.93;;;;;;;6.29;95.41;95815.16;6154419;23;20179;-83
2022/12/20 14:09:28;;;;;;;27.87;20.43;;;;;;;6.32;95.82;95812.31;6149538;23;20196;-83
2022/12/20 14:12:03;;;;;;;26.97;19.00;;;;;;;6.45;94.77;95799.97;6154525;23;20182;-83
2022/12/20 14:14:29;;;;;;;26.20;20.07;;;;;;;6.61;93.44;95801.88;6154751;23;20170;-83
2022/12/20 14:16:56;;;;;;;25.73;18.97;;;;;;;6.70;92.71;95783.09;6155139;23;20572;-82
2022/12/20 14:19:22;;;;;;;26.60;20.27;;;;;;;6.65;93.22;95784.47;6154886;23;20203;-82
2022/12/20 14:21:49;;;;;;;27.00;19.17;;;;;;;6.63;92.38;95783.81;6155066;23;20202;-82
2022/12/20 14:24:19;;;;;;;25.57;19.07;;;;;;;6.61;92.03;95772.94;6154705;23;20665;-83
2022/12/20 14:26:49;;;;;;;23.03;18.70;;;;;;;6.57;91.66;95772.41;6155259;23;20546;-82
2022/12/20 14:29:20;;;;;;;23.87;18.83;;;;;;;6.52;91.86;95759.28;6153493;23;20576;-83
2022/12/20 14:31:48;;;;;;;23.80;17.73;;;;;;;6.45;92.32;95759.06;6155479;23;20159;-84
2022/12/20 14:34:18;;;;;;;21.60;17.33;;;;;;;6.41;92.35;95749.25;6153784;23;20206;-83
2022/12/20 14:36:47;;;;;;;26.50;18.03;;;;;;;6.32;92.64;95747.59;6154348;23;20167;-83
2022/12/20 14:39:24;;;;;;;24.03;16.37;;;;;;;6.24;92.92;95755.97;6154341;23;20199;-81
2022/12/20 14:41:56;;;;;;;23.13;17.70;;;;;;;6.19;93.40;95766.63;6154075;23;20198;-84
2022/12/20 14:44:26;;;;;;;24.23;17.23;;;;;;;6.13;93.84;95779.22;6154264;23;20205;-83
2022/12/20 14:46:54;;;;;;;23.20;17.43;;;;;;;6.07;94.63;95779.78;6153486;23;20241;-83
2022/12/20 14:49:24;;;;;;;22.63;18.10;;;;;;;5.97;95.72;95782.38;6154441;23;20199;-84
2022/12/20 14:51:53;;;;;;;23.00;17.13;;;;;;;5.95;95.60;95786.84;6154860;23;20179;-83
2022/12/20 14:54:20;;;;;;;23.90;18.17;;;;;;;5.94;95.55;95781.88;6154105;23;20171;-83
2022/12/20 14:56:49;;;;;;;23.27;18.40;;;;;;;5.88;96.36;95773.84;6152922;23;20218;-82
2022/12/20 14:59:18;;;;;;;24.60;18.00;;;;;;;5.80;96.75;95765.22;6138786;23;20750;-82
2022/12/20 15:01:46;;;;;;;23.63;17.50;;;;;;;5.76;96.66;95749.41;6146838;23;20190;-80
2022/12/20 15:04:24;;;;;;;31.90;17.37;;;;;;;5.74;96.44;95766.63;6153878;23;20194;-81
2022/12/20 15:06:52;;;;;;;26.40;18.60;;;;;;;5.74;96.75;95781.13;6148913;23;20189;-81
2022/12/20 15:09:18;;;;;;;23.90;17.77;;;;;;;5.67;97.71;95773.22;6106448;23;20286;-80
2022/12/20 15:11:46;;;;;;;20.93;17.47;;;;;;;5.67;97.87;95767.31;6140818;23;20175;-81
2022/12/20 15:14:22;;;;;;;25.63;18.53;;;;;;;5.62;98.28;95772.84;6151522;23;20183;-82
2022/12/20 15:16:51;;;;;;;21.73;17.57;;;;;;;5.59;98.33;95774.88;6152446;23;20166;-81
2022/12/20 15:19:17;;;;;;;24.80;17.73;;;;;;;5.59;98.27;95760.34;6152508;23;20195;-82
2022/12/20 15:21:45;;;;;;;25.77;17.83;;;;;;;5.58;98.00;95760.53;6152491;23;20194;-84
2022/12/20 15:24:14;;;;;;;25.47;18.00;;;;;;;5.54;98.67;95752.34;6153538;23;20229;-82
2022/12/20 15:26:40;;;;;;;24.20;18.00;;;;;;;5.53;98.62;95743.88;6152702;23;20186;-83
2022/12/20 15:29:07;;;;;;;27.90;18.23;;;;;;;5.50;98.62;95736.47;6151041;23;20202;-82
2022/12/20 15:31:35;;;;;;;25.10;18.33;;;;;;;5.31;100.00;95728.09;6152646;23;20171;-82
2022/12/20 15:34:12;;;;;;;23.53;17.90;;;;;;;5.21;100.00;95741.69;6152802;23;20179;-83
2022/12/20 15:36:39;;;;;;;22.60;18.00;;;;;;;5.26;100.00;95745.56;6152283;23;20612;-82
2022/12/20 15:39:05;;;;;;;22.33;16.90;;;;;;;5.29;100.00;95746.09;6151807;23;20196;-82
2022/12/20 15:41:34;;;;;;;22.40;17.30;;;;;;;5.34;100.00;95753.34;6152010;23;20195;-82
2022/12/20 15:44:04;;;;;;;21.40;17.10;;;;;;;5.34;100.00;95750.81;6152527;23;20230;-82
2022/12/20 15:46:30;;;;;;;23.63;17.03;;;;;;;5.32;100.00;95745.03;6153114;23;20159;-81
2022/12/20 15:48:57;;;;;;;26.07;17.80;;;;;;;5.32;100.00;95739.91;6151382;23;20194;-83
2022/12/20 15:51:29;;;;;;;25.80;17.13;;;;;;;5.34;100.00;95732.94;6151717;23;20683;-83
2022/12/20 15:53:56;;;;;;;23.30;16.13;;;;;;;5.35;99.88;95740.44;6152750;23;20159;-82
2022/12/20 15:56:24;;;;;;;23.67;18.10;;;;;;;5.37;99.73;95737.75;6152443;23;20182;-82
2022/12/20 15:58:51;;;;;;;23.67;18.20;;;;;;;5.39;99.25;95749.41;6152573;23;20790;-82
2022/12/20 16:01:19;;;;;;;20.73;17.70;;;;;;;5.40;99.00;95758.69;6152659;23;20195;-84
2022/12/20 16:03:46;;;;;;;22.80;18.13;;;;;;;5.41;99.33;95749.28;6152359;23;20174;-81
2022/12/20 16:06:13;;;;;;;25.87;18.17;;;;;;;5.41;99.26;95746.72;6152372;23;20644;-83
2022/12/20 16:08:41;;;;;;;29.77;17.60;;;;;;;5.41;99.28;95747.53;6152579;23;20199;-81
2022/12/20 16:11:20;;;;;;;20.37;18.03;;;;;;;5.43;99.02;95755.06;6152343;23;20178;-83
2022/12/20 16:13:46;;;;;;;24.30;17.60;;;;;;;5.38;99.82;95747.84;6152741;23;20167;-82
2022/12/20 16:16:17;;;;;;;20.47;16.63;;;;;;;5.39;100.00;95740.94;6152293;23;20179;-82
2022/12/20 16:18:44;;;;;;;23.83;16.70;;;;;;;5.39;99.62;95736.66;6151252;23;20201;-83
2022/12/20 16:21:15;;;;;;;22.50;17.50;;;;;;;5.40;99.27;95733.16;6152809;23;20233;-83
2022/12/20 16:23:43;;;;;;;25.80;19.03;;;;;;;5.41;99.20;95737.31;6152961;23;20193;-82
2022/12/20 16:26:12;;;;;;;23.53;18.73;;;;;;;5.41;99.31;95734.75;6148804;23;20233;-82
2022/12/20 16:28:39;;;;;;;22.93;17.90;;;;;;;5.41;98.98;95754.38;6152481;23;20198;-83
2022/12/20 16:31:12;;;;;;;26.20;18.63;;;;;;;5.39;99.23;95746.84;6154150;23;20155;-82
2022/12/20 16:33:38;;;;;;;23.70;17.60;;;;;;;5.40;98.92;95734.91;6154379;23;20206;-83
2022/12/20 16:36:05;;;;;;;23.17;18.37;;;;;;;5.38;99.09;95727.41;6135686;23;20684;-82
2022/12/20 16:38:31;;;;;;;25.17;18.70;;;;;;;5.39;98.93;95736.66;6150204;23;20205;-81
2022/12/20 16:41:11;;;;;;;23.67;18.17;;;;;;;5.37;98.79;95733.47;6154083;23;20672;-82
2022/12/20 16:43:38;;;;;;;22.93;18.20;;;;;;;5.37;99.08;95742.88;6154362;23;20194;-83
2022/12/20 16:46:05;;;;;;;22.90;18.60;;;;;;;5.33;99.20;95752.53;6154420;23;20524;-82
2022/12/20 16:48:31;;;;;;;24.97;18.87;;;;;;;5.30;99.08;95760.47;6154202;23;20199;-82
2022/12/20 16:50:58;;;;;;;26.40;19.10;;;;;;;5.28;99.05;95747.06;6152191;23;20166;-83
2022/12/20 16:53:24;;;;;;;27.13;18.97;;;;;;;5.28;98.78;95746.25;6154207;23;20178;-81